createdAt,value
2023-05-20T00:02:15.574Z,8.77
2023-05-20T00:05:34.637Z,8.74
2023-05-20T00:08:24.309Z,8.71
2023-05-20T00:11:26.905Z,8.70
2023-05-20T00:14:35.556Z,8.70
2023-05-20T00:17:35.748Z,8.71
2023-05-20T00:20:36.994Z,8.73
2023-05-20T00:23:46.611Z,8.71
2023-05-20T00:26:37.614Z,8.70
2023-05-20T00:29:45.881Z,8.67
2023-05-20T00:32:39.445Z,8.61
2023-05-20T00:35:40.787Z,8.58
2023-05-20T00:38:40.234Z,8.54
2023-05-20T00:41:41.138Z,8.49
2023-05-20T00:44:49.531Z,8.46
2023-05-20T00:48:01.014Z,8.42
2023-05-20T00:51:09.357Z,8.39
2023-05-20T00:54:17.611Z,8.35
2023-05-20T00:57:25.971Z,8.29
2023-05-20T01:00:34.085Z,8.23
2023-05-20T01:03:24.555Z,8.16
2023-05-20T01:06:33.179Z,8.12
2023-05-20T01:09:47.360Z,8.08
2023-05-20T01:12:39.000Z,8.03
2023-05-20T01:15:48.428Z,7.99
2023-05-20T01:18:57.191Z,7.96
2023-05-20T01:22:05.518Z,7.92
2023-05-20T01:25:13.906Z,7.86
2023-05-20T01:28:22.735Z,7.83
2023-05-20T01:31:25.060Z,7.83
2023-05-20T01:34:25.968Z,7.86
2023-05-20T01:37:33.143Z,7.90
2023-05-20T01:40:41.543Z,7.91
2023-05-20T01:43:49.933Z,7.92
2023-05-20T01:46:54.686Z,7.84
2023-05-20T01:49:23.082Z,7.76
2023-05-20T01:52:31.502Z,7.71
2023-05-20T01:55:22.791Z,7.69
2023-05-20T01:58:19.920Z,7.69
2023-05-20T02:01:28.492Z,7.68
2023-05-20T02:04:30.170Z,7.65
2023-05-20T02:07:41.566Z,7.61
2023-05-20T02:10:33.040Z,7.56
2023-05-20T02:13:41.398Z,7.53
2023-05-20T02:16:49.884Z,7.53
2023-05-20T02:19:58.285Z,7.55
2023-05-20T02:23:06.723Z,7.57
2023-05-20T02:26:15.083Z,7.56
2023-05-20T02:29:13.522Z,7.54
2023-05-20T02:31:57.139Z,7.56
2023-05-20T02:34:58.238Z,7.60
2023-05-20T02:38:06.735Z,7.62
2023-05-20T02:40:44.311Z,7.63
2023-05-20T02:43:36.882Z,7.62
2023-05-20T02:46:17.378Z,7.61
2023-05-20T02:49:17.110Z,7.55
2023-05-20T02:52:30.405Z,7.50
2023-05-20T02:55:18.921Z,7.48
2023-05-20T02:58:18.393Z,7.45
2023-05-20T03:01:16.705Z,7.43
2023-05-20T03:03:56.116Z,7.37
2023-05-20T03:07:04.634Z,7.33
2023-05-20T03:09:52.478Z,7.28
2023-05-20T03:12:35.255Z,7.21
2023-05-20T03:15:26.655Z,7.18
2023-05-20T03:18:36.296Z,7.16
2023-05-20T03:21:18.073Z,7.18
2023-05-20T03:23:48.708Z,7.20
2023-05-20T03:26:49.108Z,7.24
2023-05-20T03:29:57.558Z,7.28
2023-05-20T03:33:05.886Z,7.33
2023-05-20T03:35:59.623Z,7.38
2023-05-20T03:38:58.047Z,7.43
2023-05-20T03:42:06.481Z,7.50
2023-05-20T03:45:00.338Z,7.60
2023-05-20T03:48:08.823Z,7.66
2023-05-20T03:51:17.188Z,7.74
2023-05-20T03:54:36.303Z,7.81
2023-05-20T03:57:17.092Z,7.87
2023-05-20T04:00:25.447Z,7.91
2023-05-20T04:03:33.849Z,7.97
2023-05-20T04:06:42.284Z,8.00
2023-05-20T04:09:44.221Z,8.03
2023-05-20T04:12:43.570Z,8.07
2023-05-20T04:15:52.568Z,8.09
2023-05-20T04:18:54.888Z,8.12
2023-05-20T04:22:03.350Z,8.14
2023-05-20T04:25:11.670Z,8.15
2023-05-20T04:28:21.084Z,8.19
2023-05-20T04:31:29.684Z,8.24
2023-05-20T04:34:38.316Z,8.31
2023-05-20T04:37:45.367Z,8.39
2023-05-20T04:40:45.031Z,8.48
2023-05-20T04:43:24.294Z,8.56
2023-05-20T04:46:32.689Z,8.60
2023-05-20T04:49:41.046Z,8.63
2023-05-20T04:52:31.042Z,8.63
2023-05-20T04:55:27.565Z,8.60
2023-05-20T04:58:35.208Z,8.61
2023-05-20T05:01:33.857Z,8.60
2023-05-20T05:04:11.060Z,8.63
2023-05-20T05:06:52.372Z,8.64
2023-05-20T05:10:00.647Z,8.67
2023-05-20T05:12:42.841Z,8.70
2023-05-20T05:15:26.824Z,8.66
2023-05-20T05:18:35.326Z,8.64
2023-05-20T05:21:43.616Z,8.68
2023-05-20T05:24:32.018Z,8.74
2023-05-20T05:27:23.354Z,8.77
2023-05-20T05:29:55.045Z,8.84
2023-05-20T05:33:03.410Z,8.89
2023-05-20T05:36:04.588Z,8.94
2023-05-20T05:39:12.940Z,8.99
2023-05-20T05:42:21.396Z,9.10
2023-05-20T05:45:29.644Z,9.27
2023-05-20T05:48:38.395Z,9.51
2023-05-20T05:51:46.710Z,9.81
2023-05-20T05:54:54.078Z,10.11
2023-05-20T05:57:45.770Z,10.30
2023-05-20T06:00:54.275Z,10.44
2023-05-20T06:04:02.868Z,10.52
2023-05-20T06:06:51.164Z,10.63
2023-05-20T06:09:49.575Z,10.72
2023-05-20T06:12:52.047Z,10.87
2023-05-20T06:16:03.115Z,10.96
2023-05-20T06:19:11.461Z,10.98
2023-05-20T06:22:21.302Z,11.14
2023-05-20T06:25:29.613Z,11.14
2023-05-20T06:28:38.126Z,11.12
2023-05-20T06:31:46.415Z,11.18
2023-05-20T06:34:54.777Z,11.30
2023-05-20T06:38:03.105Z,11.35
2023-05-20T06:41:11.449Z,11.48
2023-05-20T06:44:22.826Z,11.69
2023-05-20T06:47:15.552Z,11.74
2023-05-20T06:50:14.584Z,11.78
2023-05-20T06:53:17.895Z,11.75
2023-05-20T06:56:08.777Z,11.79
2023-05-20T06:59:05.841Z,11.92
2023-05-20T07:01:59.629Z,12.58
2023-05-20T07:05:08.015Z,13.49
2023-05-20T07:08:16.354Z,13.42
2023-05-20T07:11:24.754Z,13.18
2023-05-20T07:14:35.854Z,13.31
2023-05-20T07:17:27.230Z,13.66
2023-05-20T07:20:35.621Z,14.74
2023-05-20T07:23:43.985Z,15.54
2023-05-20T07:26:44.049Z,15.28
2023-05-20T07:29:52.317Z,15.00
2023-05-20T07:32:43.515Z,14.73
2023-05-20T07:35:33.032Z,14.82
2023-05-20T07:38:24.471Z,15.80
2023-05-20T07:41:16.811Z,16.11
2023-05-20T07:44:25.414Z,16.58
2023-05-20T07:47:33.782Z,16.77
2023-05-20T07:50:01.826Z,16.61
2023-05-20T07:52:55.891Z,16.26
2023-05-20T07:56:05.692Z,15.86
2023-05-20T07:58:53.944Z,15.65
2023-05-20T08:01:42.710Z,15.53
2023-05-20T08:04:43.910Z,15.32
2023-05-20T08:07:12.134Z,15.12
2023-05-20T08:10:08.180Z,14.89
2023-05-20T08:13:16.484Z,14.85
2023-05-20T08:16:06.189Z,14.88
2023-05-20T08:19:14.492Z,14.95
2023-05-20T08:22:15.440Z,15.10
2023-05-20T08:25:07.067Z,15.13
2023-05-20T08:28:15.862Z,15.12
2023-05-20T08:31:11.891Z,15.17
2023-05-20T08:34:03.245Z,15.17
2023-05-20T08:37:03.157Z,15.18
2023-05-20T08:40:11.524Z,15.28
2023-05-20T08:43:25.716Z,15.37
2023-05-20T08:46:25.622Z,15.47
2023-05-20T08:48:55.045Z,15.47
2023-05-20T08:51:56.313Z,15.48
2023-05-20T08:54:36.234Z,15.46
2023-05-20T08:57:38.151Z,15.50
2023-05-20T09:00:34.797Z,15.55
2023-05-20T09:03:49.563Z,15.62
2023-05-20T09:07:01.486Z,15.70
2023-05-20T09:10:03.233Z,15.84
2023-05-20T09:13:01.630Z,15.97
2023-05-20T09:16:10.137Z,15.99
2023-05-20T09:19:15.068Z,16.02
2023-05-20T09:22:23.637Z,16.08
2023-05-20T09:25:12.651Z,16.26
2023-05-20T09:28:11.930Z,16.47
2023-05-20T09:31:20.300Z,16.58
2023-05-20T09:34:21.293Z,16.60
2023-05-20T09:37:13.184Z,16.71
2023-05-20T09:40:21.472Z,16.80
2023-05-20T09:43:33.130Z,16.87
2023-05-20T09:46:30.871Z,16.91
2023-05-20T09:49:39.213Z,17.00
2023-05-20T09:52:47.498Z,17.13
2023-05-20T09:55:36.193Z,17.19
2023-05-20T09:58:25.322Z,17.04
2023-05-20T10:01:34.100Z,16.94
2023-05-20T10:04:42.503Z,16.78
2023-05-20T10:07:47.686Z,16.80
2023-05-20T10:11:14.300Z,16.97
2023-05-20T10:14:22.973Z,17.27
2023-05-20T10:17:31.347Z,17.51
2023-05-20T10:20:39.681Z,17.62
2023-05-20T10:23:10.873Z,17.83
2023-05-20T10:26:19.134Z,17.91
2023-05-20T10:29:27.460Z,17.96
2023-05-20T10:32:35.966Z,18.09
2023-05-20T10:35:33.151Z,18.21
2023-05-20T10:38:40.208Z,18.38
2023-05-20T10:41:48.826Z,18.62
2023-05-20T10:44:57.115Z,18.81
2023-05-20T10:48:05.547Z,18.83
2023-05-20T10:51:17.010Z,18.87
2023-05-20T10:54:26.008Z,18.97
2023-05-20T10:57:32.968Z,19.04
2023-05-20T11:00:41.811Z,19.07
2023-05-20T11:03:50.740Z,19.03
2023-05-20T11:07:00.108Z,18.89
2023-05-20T11:10:08.480Z,18.75
2023-05-20T11:13:16.819Z,18.85
2023-05-20T11:16:06.073Z,18.89
2023-05-20T11:18:39.448Z,18.72
2023-05-20T11:21:49.612Z,18.65
2023-05-20T11:24:57.851Z,18.93
2023-05-20T11:27:46.238Z,18.94
2023-05-20T11:30:54.751Z,18.91
2023-05-20T11:34:03.529Z,19.22
2023-05-20T11:37:13.320Z,19.30
2023-05-20T11:40:32.961Z,19.57
2023-05-20T11:43:46.783Z,19.96
2023-05-20T11:46:35.213Z,20.39
2023-05-20T11:49:43.898Z,20.71
2023-05-20T11:52:51.354Z,20.98
2023-05-20T11:55:59.788Z,21.04
2023-05-20T11:59:08.064Z,21.17
2023-05-20T12:02:16.478Z,21.02
2023-05-20T12:05:24.664Z,21.14
2023-05-20T12:08:32.943Z,21.19
2023-05-20T12:11:41.924Z,21.53
2023-05-20T12:14:51.771Z,21.79
2023-05-20T12:18:00.301Z,21.72
2023-05-20T12:21:08.740Z,21.38
2023-05-20T12:24:19.857Z,21.14
2023-05-20T12:27:21.525Z,21.24
2023-05-20T12:30:30.014Z,21.39
2023-05-20T12:33:38.502Z,21.21
2023-05-20T12:36:46.831Z,21.28
2023-05-20T12:39:35.247Z,21.22
2023-05-20T12:42:43.499Z,20.97
2023-05-20T12:45:51.921Z,21.00
2023-05-20T12:49:00.188Z,21.09
2023-05-20T12:51:51.547Z,20.74
2023-05-20T12:54:45.101Z,20.87
2023-05-20T12:57:53.515Z,21.19
2023-05-20T13:01:01.814Z,21.34
2023-05-20T13:04:10.211Z,21.53
2023-05-20T13:07:18.501Z,21.60
2023-05-20T13:09:46.657Z,21.79
2023-05-20T13:12:55.010Z,21.85
2023-05-20T13:15:46.308Z,21.95
2023-05-20T13:18:57.725Z,21.62
2023-05-20T13:22:06.154Z,21.04
2023-05-20T13:25:14.624Z,20.90
2023-05-20T13:28:16.247Z,21.05
2023-05-20T13:31:24.773Z,20.79
2023-05-20T13:34:33.453Z,20.56
2023-05-20T13:37:41.910Z,20.87
2023-05-20T13:40:40.887Z,20.96
2023-05-20T13:43:49.283Z,20.83
2023-05-20T13:46:57.642Z,21.18
2023-05-20T13:50:06.077Z,21.61
2023-05-20T13:53:14.388Z,21.46
2023-05-20T13:56:21.315Z,21.45
2023-05-20T13:58:56.785Z,21.54
2023-05-20T14:01:56.456Z,21.62
2023-05-20T14:04:58.286Z,21.17
2023-05-20T14:08:06.591Z,20.76
2023-05-20T14:10:54.820Z,20.84
2023-05-20T14:14:03.125Z,20.81
2023-05-20T14:16:54.190Z,20.79
2023-05-20T14:20:01.471Z,20.80
2023-05-20T14:23:09.816Z,20.42
2023-05-20T14:26:18.195Z,20.13
2023-05-20T14:29:26.492Z,20.35
2023-05-20T14:32:34.862Z,20.54
2023-05-20T14:35:43.581Z,20.76
2023-05-20T14:38:51.853Z,21.01
2023-05-20T14:41:52.503Z,21.26
2023-05-20T14:45:00.821Z,21.34
2023-05-20T14:48:09.217Z,21.15
2023-05-20T14:51:17.572Z,20.98
2023-05-20T14:54:25.976Z,20.59
2023-05-20T14:57:34.254Z,20.50
2023-05-20T15:00:42.954Z,20.96
2023-05-20T15:03:52.526Z,21.31
2023-05-20T15:07:01.019Z,21.35
2023-05-20T15:09:59.309Z,21.23
2023-05-20T15:13:07.750Z,21.41
2023-05-20T15:16:14.972Z,21.72
2023-05-20T15:19:08.752Z,21.93
2023-05-20T15:22:17.034Z,21.63
2023-05-20T15:25:03.785Z,21.28
2023-05-20T15:28:12.253Z,21.01
2023-05-20T15:31:13.859Z,21.01
2023-05-20T15:34:22.146Z,21.18
2023-05-20T15:37:15.929Z,20.90
2023-05-20T15:40:24.198Z,20.45
2023-05-20T15:43:24.013Z,20.15
2023-05-20T15:46:32.312Z,19.89
2023-05-20T15:49:41.052Z,19.80
2023-05-20T15:52:49.377Z,19.80
2023-05-20T15:55:23.847Z,20.18
2023-05-20T15:58:32.721Z,20.48
2023-05-20T16:01:41.084Z,20.40
2023-05-20T16:04:49.442Z,20.21
2023-05-20T16:07:58.153Z,20.36
2023-05-20T16:11:07.104Z,20.59
2023-05-20T16:13:51.632Z,20.67
2023-05-20T16:16:58.755Z,20.47
2023-05-20T16:20:07.334Z,20.68
2023-05-20T16:23:15.691Z,20.88
2023-05-20T16:26:24.087Z,20.94
2023-05-20T16:28:55.146Z,20.78
2023-05-20T16:32:03.541Z,20.76
2023-05-20T16:35:05.068Z,20.65
2023-05-20T16:38:13.375Z,20.40
2023-05-20T16:41:21.733Z,20.52
2023-05-20T16:44:12.906Z,20.73
2023-05-20T16:47:21.292Z,20.60
2023-05-20T16:50:05.973Z,20.33
2023-05-20T16:53:16.502Z,20.41
2023-05-20T16:56:26.353Z,20.51
2023-05-20T16:59:25.811Z,20.68
2023-05-20T17:02:34.142Z,20.74
2023-05-20T17:05:42.681Z,20.41
2023-05-20T17:08:51.002Z,20.22
2023-05-20T17:11:59.349Z,20.23
2023-05-20T17:14:50.305Z,20.19
2023-05-20T17:25:44.594Z,20.03
2023-05-20T17:28:37.974Z,20.14
2023-05-20T17:31:46.359Z,20.21
2023-05-20T17:34:54.762Z,20.19
2023-05-20T17:37:55.690Z,19.98
2023-05-20T17:41:04.288Z,19.96
2023-05-20T17:43:52.424Z,19.66
2023-05-20T17:47:00.983Z,19.55
2023-05-20T17:49:51.844Z,19.62
2023-05-20T17:52:50.613Z,19.72
2023-05-20T17:55:51.720Z,19.82
2023-05-20T17:58:39.964Z,19.90
2023-05-20T18:01:48.347Z,19.93
2023-05-20T18:04:57.098Z,19.92
2023-05-20T18:08:05.566Z,19.86
2023-05-20T18:11:13.896Z,19.79
2023-05-20T18:14:22.294Z,19.69
2023-05-20T18:17:30.922Z,19.61
2023-05-20T18:20:24.499Z,19.54
2023-05-20T18:23:36.040Z,19.53
2023-05-20T18:26:44.380Z,19.59
2023-05-20T18:29:51.489Z,19.60
2023-05-20T18:32:47.126Z,19.57
2023-05-20T18:35:56.312Z,19.57
2023-05-20T18:39:05.166Z,19.61
2023-05-20T18:42:13.611Z,19.56
2023-05-20T18:45:22.173Z,19.43
2023-05-20T18:48:31.015Z,19.34
2023-05-20T18:51:33.124Z,19.26
2023-05-20T18:54:41.672Z,19.16
2023-05-20T18:57:50.202Z,19.01
2023-05-20T19:00:58.874Z,18.84
2023-05-20T19:04:07.575Z,18.71
2023-05-20T19:07:06.155Z,18.45
2023-05-20T19:10:14.694Z,18.06
2023-05-20T19:13:23.142Z,17.73
2023-05-20T19:16:31.668Z,17.49
2023-05-20T19:19:40.224Z,17.32
2023-05-20T19:22:48.826Z,17.14
2023-05-20T19:25:57.343Z,16.99
2023-05-20T19:29:05.896Z,16.84
2023-05-20T19:32:14.322Z,16.70
2023-05-20T19:35:22.700Z,16.55
2023-05-20T19:38:25.101Z,16.39
2023-05-20T19:41:33.644Z,16.25
2023-05-20T19:44:41.935Z,16.09
2023-05-20T19:47:50.426Z,15.95
2023-05-20T19:50:58.969Z,15.81
2023-05-20T19:54:07.408Z,15.68
2023-05-20T19:56:57.065Z,15.55
2023-05-20T20:00:05.865Z,15.44
2023-05-20T20:03:07.195Z,15.30
2023-05-20T20:06:08.455Z,15.13
2023-05-20T20:09:07.731Z,15.00
2023-05-20T20:11:43.419Z,14.89
2023-05-20T20:14:52.309Z,14.80
2023-05-20T20:18:00.684Z,14.69
2023-05-20T20:21:09.320Z,14.56
2023-05-20T20:24:17.671Z,14.43
2023-05-20T20:27:25.211Z,14.32
2023-05-20T20:30:33.481Z,14.22
2023-05-20T20:33:34.673Z,14.13
2023-05-20T20:36:42.998Z,14.02
2023-05-20T20:39:50.152Z,13.91
2023-05-20T20:42:57.789Z,13.82
2023-05-20T20:46:08.734Z,13.71
2023-05-20T20:49:17.567Z,13.60
2023-05-20T20:52:25.879Z,13.49
2023-05-20T20:55:34.410Z,13.40
2023-05-20T20:58:24.674Z,13.33
2023-05-20T21:01:32.994Z,13.27
2023-05-20T21:04:40.248Z,13.18
2023-05-20T21:07:48.643Z,13.07
2023-05-20T21:10:57.339Z,12.94
2023-05-20T21:14:08.553Z,12.86
2023-05-20T21:17:16.936Z,12.79
2023-05-20T21:20:25.264Z,12.70
2023-05-20T21:23:28.762Z,12.64
2023-05-20T21:26:37.039Z,12.55
2023-05-20T21:29:46.836Z,12.42
2023-05-20T21:32:55.288Z,12.31
2023-05-20T21:36:02.354Z,12.20
2023-05-20T21:39:03.471Z,12.12
2023-05-20T21:42:11.914Z,12.07
2023-05-20T21:45:20.259Z,12.01
2023-05-20T21:48:30.232Z,11.94
2023-05-20T21:51:29.523Z,11.84
2023-05-20T21:54:37.991Z,11.77
2023-05-20T21:57:46.245Z,11.71
2023-05-20T22:00:54.772Z,11.62
2023-05-20T22:04:04.294Z,11.55
2023-05-20T22:07:02.836Z,11.50
2023-05-20T22:10:11.142Z,11.45
2023-05-20T22:13:19.789Z,11.39
2023-05-20T22:16:18.424Z,11.34
2023-05-20T22:19:27.002Z,11.27
2023-05-20T22:22:35.844Z,11.23
2023-05-20T22:25:44.548Z,11.23
2023-05-20T22:28:52.926Z,11.22
2023-05-20T22:32:01.461Z,11.18
2023-05-20T22:35:09.825Z,11.12
2023-05-20T22:38:18.504Z,11.03
2023-05-20T22:41:26.832Z,10.97
2023-05-20T22:44:35.412Z,10.91
2023-05-20T22:47:43.772Z,10.84
2023-05-20T22:50:52.583Z,10.77
2023-05-20T22:54:00.866Z,10.71
2023-05-20T22:57:09.244Z,10.64
2023-05-20T23:00:18.966Z,10.57
2023-05-20T23:03:27.490Z,10.51
2023-05-20T23:06:35.799Z,10.45
2023-05-20T23:09:33.339Z,10.39
2023-05-20T23:12:41.618Z,10.36
2023-05-20T23:15:50.553Z,10.32
2023-05-20T23:18:58.890Z,10.27
2023-05-20T23:22:07.444Z,10.23
2023-05-20T23:25:01.715Z,10.20
2023-05-20T23:27:53.229Z,10.17
2023-05-20T23:31:01.525Z,10.13
2023-05-20T23:34:10.006Z,10.13
2023-05-20T23:37:11.089Z,10.13
2023-05-20T23:40:19.591Z,10.10
2023-05-20T23:43:28.003Z,10.07
2023-05-20T23:46:28.052Z,10.04
2023-05-20T23:49:28.786Z,10.01
2023-05-20T23:52:37.254Z,10.00
2023-05-20T23:55:45.524Z,9.97
2023-05-20T23:58:54.914Z,9.92
